Thursday, March 05, 2015
11:56 UTC
  |  Log In   |  Register Free
Airport Search:

Enterprise Municipal Airport
(KEDN)

Enterprise Municipal Airport Diagram
No Airport Diagram Available

FAA data valid effective January 08, 2015 - March 05, 2015 (unless otherwise noted).

 
 
 
 
 
 
 
 
 
 
 
 
 
 

Current Aviation Weather for Enterprise Municipal Airport (KEDN)

The most recent METAR observation for KEDN was updated at: 1112
METAR Summary (Translated METAR)
KEDN
051055Z AUTO 21010G14KT 10SM OVC013 21/19 A2995 RMK AO2
KSXS
051101Z AUTO 20011G19KT 8SM SCT011 BKN015 BKN018 21/19 A2996 RMK AO2
(4.6 nm NE from KEDN)
KLOR
051053Z AUTO 21009KT 10SM BKN017 OVC022 22/19 A2994 RMK AO2 SLP135 T02170194
(8.3 nm NE from KEDN)
TAF
No TAF information found within 50 nm of KLOR
  Airport Weather Conditions for KEDN

 Current Weather at EDN
70° F
Overcast
Southwest winds at 11.5 mph
EDN NOAA Radar

Pressure: 29.95 in
Humidity: 88%
Wind: from the Southwest at 11.5 gusting to 16.1 MPH (10 gusting to 14 KT)
Dew Point: 66.2°F
Visibility: 10.00 mi


Airport Weather Forecast for KEDN

Translated METAR and TAF for KLOR
Translated METAR for KLOR (1156 UTC 05 March 2015)
found at http://aviationweather.gov/adds/metars/
 
METAR text: KLOR 051153Z AUTO 21009KT 10SM FEW015 SCT024 BKN036 22/19 A2994 RMK AO2 SLP135 T02170189 10222 20211 51006
Conditions at: KLOR (LOWE AHP/FT. RUC, AL, US) observed 1153 UTC 05 March 2015
Temperature: 21.7°C (71°F)
Dewpoint: 18.9°C (66°F) [RH = 84%]
Pressure (altimeter): 29.94 inches Hg (1014.0 mb)
[Sea-level pressure: 1013.5 mb]
Winds: from the SSW (210 degrees) at 10 MPH (9 knots; 4.7 m/s)
Visibility: 10 or more miles (16+ km)
Ceiling: 3600 feet AGL
Clouds: few clouds at 1500 feet AGL
scattered clouds at 2400 feet AGL
broken clouds at 3600 feet AGL
Weather: automated observation with no human augmentation;
there may or may not be significant weather present at this time
Translated TAF for KLOR

There is no translated TAF available for this airport

Find All Airport Services Find A Hotel Find A Rental Car Find A Golf Course Find A Restaurant $100 Hamburger



FBO's on the Field
FBO Company Facility Photos Services Transportation Aviation Fuel Prices: Prices include tax
Catering Weather Repair Courtesy Rental Type 100LL JetA JetA+ MOGAS 8087
 
Enterprise Municipal Airport

This FBO has not yet been rated
FS:Epic
Last Updated: Feb-27
Login to update fuel prices
SS:
Contact Enterprise Municipal AirportMore FBO Information
 
Add another FBO Facility Photos Catering Weather Repair Courtesy Rental Type 100LL JetA JetA+ MOGAS 8087
Services Transportation Aviation Fuel Prices: Prices include tax


model-print
model-print
model-print
model-print